createdAt,value
2017-11-25T00:00:12.780Z,1004.69
2017-11-25T00:00:38.905Z,1004.64
2017-11-25T00:01:05.325Z,1004.66
2017-11-25T00:01:31.466Z,1004.66
2017-11-25T00:01:57.546Z,1004.66
2017-11-25T00:02:23.674Z,1004.64
2017-11-25T00:02:49.803Z,1004.64
2017-11-25T00:03:15.941Z,1004.58
2017-11-25T00:03:42.077Z,1004.6
2017-11-25T00:04:08.198Z,1004.63
2017-11-25T00:04:34.313Z,1004.62
2017-11-25T00:05:00.432Z,1004.63
2017-11-25T00:05:26.560Z,1004.62
2017-11-25T00:05:52.699Z,1004.63
2017-11-25T00:06:18.841Z,1004.66
2017-11-25T00:06:44.967Z,1004.63
2017-11-25T00:07:11.101Z,1004.61
2017-11-25T00:07:37.208Z,1004.62
2017-11-25T00:08:03.333Z,1004.65
2017-11-25T00:08:29.451Z,1004.62
2017-11-25T00:08:55.578Z,1004.65
2017-11-25T00:09:21.711Z,1004.62
2017-11-25T00:09:47.820Z,1004.65
2017-11-25T00:10:13.966Z,1004.64
2017-11-25T00:10:40.087Z,1004.61
2017-11-25T00:11:06.201Z,1004.71
2017-11-25T00:11:32.348Z,1004.66
2017-11-25T00:11:58.480Z,1004.66
2017-11-25T00:12:24.590Z,1004.66
2017-11-25T00:12:50.721Z,1004.67
2017-11-25T00:13:16.839Z,1004.68
2017-11-25T00:13:42.955Z,1004.66
2017-11-25T00:14:09.100Z,1004.65
2017-11-25T00:14:35.227Z,1004.67
2017-11-25T00:15:01.449Z,1004.69
2017-11-25T00:15:27.580Z,1004.66
2017-11-25T00:15:53.704Z,1004.68
2017-11-25T00:16:19.829Z,1004.64
2017-11-25T00:16:45.947Z,1004.64
2017-11-25T00:17:12.104Z,1004.69
2017-11-25T00:17:38.223Z,1004.62
2017-11-25T00:18:04.355Z,1004.62
2017-11-25T00:18:30.479Z,1004.65
2017-11-25T00:18:56.594Z,1004.6
2017-11-25T00:19:22.723Z,1004.64
2017-11-25T00:19:48.838Z,1004.63
2017-11-25T00:20:14.958Z,1004.64
2017-11-25T00:20:41.085Z,1004.62
2017-11-25T00:21:07.206Z,1004.58
2017-11-25T00:21:33.322Z,1004.59
2017-11-25T00:21:59.448Z,1004.62
2017-11-25T00:22:25.591Z,1004.6
2017-11-25T00:22:51.721Z,1004.63
2017-11-25T00:23:17.885Z,1004.62
2017-11-25T00:23:44.010Z,1004.6
2017-11-25T00:24:10.146Z,1004.6
2017-11-25T00:24:36.286Z,1004.63
2017-11-25T00:25:02.421Z,1004.66
2017-11-25T00:25:28.538Z,1004.63
2017-11-25T00:25:54.685Z,1004.59
2017-11-25T00:26:20.803Z,1004.64
2017-11-25T00:26:46.927Z,1004.6
2017-11-25T00:27:13.052Z,1004.59
2017-11-25T00:27:39.175Z,1004.63
2017-11-25T00:28:05.348Z,1004.65
2017-11-25T00:28:31.509Z,1004.63
2017-11-25T00:28:57.654Z,1004.67
2017-11-25T00:29:23.800Z,1004.62
2017-11-25T00:29:49.925Z,1004.65
2017-11-25T00:30:16.043Z,1004.63
2017-11-25T00:30:42.165Z,1004.65
2017-11-25T00:31:08.312Z,1004.63
2017-11-25T00:31:34.428Z,1004.61
2017-11-25T00:32:00.547Z,1004.59
2017-11-25T00:32:26.722Z,1004.62
2017-11-25T00:32:52.863Z,1004.62
2017-11-25T00:33:18.980Z,1004.6
2017-11-25T00:33:45.103Z,1004.63
2017-11-25T00:34:11.225Z,1004.61
2017-11-25T00:34:37.336Z,1004.6
2017-11-25T00:35:03.468Z,1004.62
2017-11-25T00:35:29.581Z,1004.62
2017-11-25T00:35:55.706Z,1004.6
2017-11-25T00:36:21.824Z,1004.6
2017-11-25T00:36:47.950Z,1004.61
2017-11-25T00:37:14.089Z,1004.62
2017-11-25T00:37:40.239Z,1004.65
2017-11-25T00:38:06.388Z,1004.62
2017-11-25T00:38:32.502Z,1004.62
2017-11-25T00:38:58.626Z,1004.62
2017-11-25T00:39:24.742Z,1004.59
2017-11-25T00:39:50.875Z,1004.63
2017-11-25T00:40:17.006Z,1004.66
2017-11-25T00:40:43.120Z,1004.56
2017-11-25T00:41:09.251Z,1004.59
2017-11-25T00:41:35.366Z,1004.62
2017-11-25T00:42:01.489Z,1004.57
2017-11-25T00:42:27.662Z,1004.55
2017-11-25T00:42:53.772Z,1004.56
2017-11-25T00:43:19.916Z,1004.58
2017-11-25T00:43:46.034Z,1004.57
2017-11-25T00:44:12.152Z,1004.57
2017-11-25T00:44:38.281Z,1004.6
2017-11-25T00:45:04.396Z,1004.58
2017-11-25T00:45:30.523Z,1004.6
2017-11-25T00:45:56.647Z,1004.61
2017-11-25T00:46:22.764Z,1004.61
2017-11-25T00:46:48.909Z,1004.59
2017-11-25T00:47:15.029Z,1004.62
2017-11-25T00:47:41.151Z,1004.61
2017-11-25T00:48:07.270Z,1004.66
2017-11-25T00:48:33.400Z,1004.65
2017-11-25T00:48:59.513Z,1004.67
2017-11-25T00:49:25.637Z,1004.67
2017-11-25T00:49:51.754Z,1004.66
2017-11-25T00:50:17.876Z,1004.65
2017-11-25T00:50:44.005Z,1004.63
2017-11-25T00:51:10.123Z,1004.63
2017-11-25T00:51:36.262Z,1004.65
2017-11-25T00:52:02.387Z,1004.62
2017-11-25T00:52:28.506Z,1004.66
2017-11-25T00:52:54.650Z,1004.65
2017-11-25T00:53:20.767Z,1004.63
2017-11-25T00:53:46.913Z,1004.64
2017-11-25T00:54:13.038Z,1004.64
2017-11-25T00:54:39.156Z,1004.62
2017-11-25T00:55:05.273Z,1004.59
2017-11-25T00:55:31.395Z,1004.66
2017-11-25T00:55:57.517Z,1004.61
2017-11-25T00:56:23.644Z,1004.62
2017-11-25T00:56:49.768Z,1004.6
2017-11-25T00:57:15.895Z,1004.62
2017-11-25T00:57:42.028Z,1004.62
2017-11-25T00:58:08.174Z,1004.64
2017-11-25T00:58:34.295Z,1004.62
2017-11-25T00:59:00.420Z,1004.62
2017-11-25T00:59:26.552Z,1004.62
2017-11-25T00:59:52.669Z,1004.64
2017-11-25T01:00:18.815Z,1004.62
2017-11-25T01:00:45.278Z,1004.6
2017-11-25T01:01:11.424Z,1004.61
2017-11-25T01:01:37.543Z,1004.61
2017-11-25T01:02:03.697Z,1004.61
2017-11-25T01:02:30.084Z,1004.6
2017-11-25T01:02:56.455Z,1004.6
2017-11-25T01:03:22.578Z,1004.62
2017-11-25T01:03:48.730Z,1004.63
2017-11-25T01:04:14.851Z,1004.59
2017-11-25T01:04:40.980Z,1004.58
2017-11-25T01:05:07.182Z,1004.54
2017-11-25T01:05:33.297Z,1004.56
2017-11-25T01:05:59.449Z,1004.53
2017-11-25T01:06:25.570Z,1004.53
2017-11-25T01:06:51.693Z,1004.49
2017-11-25T01:07:17.808Z,1004.46
2017-11-25T01:07:43.955Z,1004.38
2017-11-25T01:08:10.073Z,1004.45
2017-11-25T01:08:36.213Z,1004.46
2017-11-25T01:09:02.537Z,1004.39
2017-11-25T01:09:28.657Z,1004.4
2017-11-25T01:09:54.836Z,1004.39
2017-11-25T01:10:21.058Z,1004.42
2017-11-25T01:10:47.207Z,1004.44
2017-11-25T01:11:13.389Z,1004.44
2017-11-25T01:11:39.507Z,1004.44
2017-11-25T01:12:05.645Z,1004.48
2017-11-25T01:12:31.796Z,1004.47
2017-11-25T01:12:57.950Z,1004.49
2017-11-25T01:13:24.128Z,1004.48
2017-11-25T01:13:50.243Z,1004.52
2017-11-25T01:14:16.367Z,1004.51
2017-11-25T01:14:42.500Z,1004.52
2017-11-25T01:15:08.632Z,1004.56
2017-11-25T01:15:34.777Z,1004.51
2017-11-25T01:16:00.925Z,1004.51
2017-11-25T01:16:27.084Z,1004.47
2017-11-25T01:16:53.246Z,1004.52
2017-11-25T01:17:19.466Z,1004.51
2017-11-25T01:17:45.656Z,1004.47
2017-11-25T01:18:11.836Z,1004.47
2017-11-25T01:18:37.992Z,1004.5
2017-11-25T01:19:04.154Z,1004.52
2017-11-25T01:19:30.310Z,1004.53
2017-11-25T01:19:56.467Z,1004.55
2017-11-25T01:20:22.630Z,1004.53
2017-11-25T01:20:48.869Z,1004.52
2017-11-25T01:21:15.011Z,1004.53
2017-11-25T01:21:41.166Z,1004.53
2017-11-25T01:22:07.327Z,1004.54
2017-11-25T01:22:33.485Z,1004.55
2017-11-25T01:22:59.757Z,1004.53
2017-11-25T01:23:25.916Z,1004.51
2017-11-25T01:23:52.078Z,1004.52
2017-11-25T01:24:18.234Z,1004.51
2017-11-25T01:24:44.392Z,1004.51
2017-11-25T01:25:10.753Z,1004.49
2017-11-25T01:25:36.909Z,1004.52
2017-11-25T01:26:03.059Z,1004.46
2017-11-25T01:26:29.218Z,1004.44
2017-11-25T01:26:55.380Z,1004.47
2017-11-25T01:27:21.536Z,1004.48
2017-11-25T01:27:47.691Z,1004.44
2017-11-25T01:28:13.853Z,1004.47
2017-11-25T01:28:40.042Z,1004.44
2017-11-25T01:29:06.229Z,1004.44
2017-11-25T01:29:32.397Z,1004.49
2017-11-25T01:29:58.559Z,1004.44
2017-11-25T01:30:24.714Z,1004.46
2017-11-25T01:30:50.870Z,1004.45
2017-11-25T01:31:17.064Z,1004.42
2017-11-25T01:31:43.187Z,1004.46
2017-11-25T01:32:09.416Z,1004.47
2017-11-25T01:32:35.592Z,1004.49
2017-11-25T01:33:01.754Z,1004.52
2017-11-25T01:33:27.931Z,1004.52
2017-11-25T01:33:54.089Z,1004.52
2017-11-25T01:34:20.247Z,1004.51
2017-11-25T01:34:46.408Z,1004.51
2017-11-25T01:35:12.559Z,1004.54
2017-11-25T01:35:38.714Z,1004.53
2017-11-25T01:36:04.878Z,1004.51
2017-11-25T01:36:31.079Z,1004.5
2017-11-25T01:36:57.267Z,1004.5
2017-11-25T01:37:23.455Z,1004.54
2017-11-25T01:37:49.613Z,1004.52
2017-11-25T01:38:15.771Z,1004.55
2017-11-25T01:38:41.923Z,1004.52
2017-11-25T01:39:08.075Z,1004.55
2017-11-25T01:39:34.235Z,1004.52
2017-11-25T01:40:00.415Z,1004.56
2017-11-25T01:40:26.576Z,1004.55
2017-11-25T01:40:53.021Z,1004.58
2017-11-25T01:41:19.179Z,1004.55
2017-11-25T01:41:45.332Z,1004.56
2017-11-25T01:42:11.494Z,1004.56
2017-11-25T01:42:37.655Z,1004.58
2017-11-25T01:43:03.808Z,1004.58
2017-11-25T01:43:29.960Z,1004.57
2017-11-25T01:43:56.147Z,1004.51
2017-11-25T01:44:22.309Z,1004.5
2017-11-25T01:44:48.467Z,1004.48
2017-11-25T01:45:14.624Z,1004.47
2017-11-25T01:45:40.786Z,1004.48
2017-11-25T01:46:06.946Z,1004.44
2017-11-25T01:46:33.130Z,1004.44
2017-11-25T01:46:59.291Z,1004.4
2017-11-25T01:47:25.442Z,1004.32
2017-11-25T01:47:51.614Z,1004.34
2017-11-25T01:48:17.759Z,1004.32
2017-11-25T01:48:43.921Z,1004.31
2017-11-25T01:49:10.074Z,1004.28
2017-11-25T01:49:36.231Z,1004.3
2017-11-25T01:50:02.393Z,1004.29
2017-11-25T01:50:28.553Z,1004.25
2017-11-25T01:50:54.707Z,1004.29
2017-11-25T01:51:20.898Z,1004.24
2017-11-25T01:51:47.051Z,1004.24
2017-11-25T01:52:13.215Z,1004.27
2017-11-25T01:52:39.368Z,1004.27
2017-11-25T01:53:05.523Z,1004.24
2017-11-25T01:53:31.700Z,1004.24
2017-11-25T01:53:57.845Z,1004.22
2017-11-25T01:54:24.252Z,1004.21
2017-11-25T01:54:50.417Z,1004.22
2017-11-25T01:55:16.580Z,1004.2
2017-11-25T01:55:42.738Z,1004.22
2017-11-25T01:56:08.916Z,1004.2
2017-11-25T01:56:35.079Z,1004.2
2017-11-25T01:57:01.232Z,1004.17
2017-11-25T01:57:27.393Z,1004.22
2017-11-25T01:57:53.543Z,1004.22
2017-11-25T01:58:20.474Z,1004.19
2017-11-25T01:58:46.631Z,1004.16
2017-11-25T01:59:12.784Z,1004.19
2017-11-25T01:59:38.948Z,1004.16
2017-11-25T02:00:05.103Z,1004.14
2017-11-25T02:00:31.259Z,1004.15
2017-11-25T02:00:57.423Z,1004.15
2017-11-25T02:01:23.580Z,1004.12
2017-11-25T02:01:49.737Z,1004.11
2017-11-25T02:02:15.897Z,1004.14
2017-11-25T02:02:42.076Z,1004.12
2017-11-25T02:03:08.237Z,1004.11
2017-11-25T02:03:34.398Z,1004.12
2017-11-25T02:04:00.562Z,1004.09
2017-11-25T02:04:26.703Z,1004.1
2017-11-25T02:04:52.860Z,1004.08
2017-11-25T02:05:19.013Z,1004.08
2017-11-25T02:05:45.177Z,1004.09
2017-11-25T02:06:11.329Z,1004.1
2017-11-25T02:06:37.494Z,1004.05
2017-11-25T02:07:03.649Z,1004.09
2017-11-25T02:07:29.844Z,1004.08
2017-11-25T02:07:55.998Z,1004.09
2017-11-25T02:08:22.153Z,1004.1
2017-11-25T02:08:48.324Z,1004.12
2017-11-25T02:09:14.479Z,1004.12
2017-11-25T02:09:40.630Z,1004.13
2017-11-25T02:10:06.783Z,1004.11
2017-11-25T02:10:32.947Z,1004.12
2017-11-25T02:10:59.099Z,1004.11
2017-11-25T02:11:25.256Z,1004.07
2017-11-25T02:11:51.421Z,1004.08
2017-11-25T02:12:17.579Z,1004.08
2017-11-25T02:12:43.737Z,1004.03
2017-11-25T02:13:09.895Z,1004.03
2017-11-25T02:13:36.048Z,1004.04
2017-11-25T02:14:02.214Z,1004.07
2017-11-25T02:14:28.395Z,1004.03
2017-11-25T02:14:54.557Z,1004.03
2017-11-25T02:15:20.716Z,1004.03
2017-11-25T02:15:46.871Z,1004.01
2017-11-25T02:16:13.031Z,1004.03
2017-11-25T02:16:39.190Z,1003.99
2017-11-25T02:17:05.356Z,1003.97
2017-11-25T02:17:31.516Z,1003.97
2017-11-25T02:17:57.678Z,1003.92
2017-11-25T02:18:23.836Z,1003.95
2017-11-25T02:18:49.990Z,1003.9
2017-11-25T02:19:16.153Z,1003.92
2017-11-25T02:19:42.310Z,1003.91
2017-11-25T02:20:08.490Z,1003.89
2017-11-25T02:20:34.653Z,1003.91
2017-11-25T02:21:00.805Z,1003.9
2017-11-25T02:21:26.996Z,1003.86
2017-11-25T02:21:53.157Z,1003.87
2017-11-25T02:22:19.315Z,1003.83
2017-11-25T02:22:45.475Z,1003.85
2017-11-25T02:23:11.632Z,1003.85
2017-11-25T02:23:37.785Z,1003.82
2017-11-25T02:24:03.938Z,1003.87
2017-11-25T02:24:30.101Z,1003.84
2017-11-25T02:24:56.258Z,1003.86
2017-11-25T02:25:22.416Z,1003.84
2017-11-25T02:25:48.573Z,1003.83
2017-11-25T02:26:14.734Z,1003.83
2017-11-25T02:26:40.892Z,1003.89
2017-11-25T02:27:07.089Z,1003.87
2017-11-25T02:27:33.230Z,1003.88
2017-11-25T02:27:59.422Z,1003.84
2017-11-25T02:28:25.582Z,1003.86
2017-11-25T02:28:51.744Z,1003.84
2017-11-25T02:29:17.926Z,1003.84
2017-11-25T02:29:44.080Z,1003.84
2017-11-25T02:30:10.235Z,1003.82
2017-11-25T02:30:36.422Z,1003.82
2017-11-25T02:31:02.578Z,1003.83
2017-11-25T02:31:28.729Z,1003.82
2017-11-25T02:31:54.921Z,1003.8
2017-11-25T02:32:21.083Z,1003.81
2017-11-25T02:32:47.242Z,1003.8
2017-11-25T02:33:13.395Z,1003.81
2017-11-25T02:33:39.550Z,1003.82
2017-11-25T02:34:05.707Z,1003.82
2017-11-25T02:34:31.868Z,1003.8
2017-11-25T02:34:58.021Z,1003.79
2017-11-25T02:35:24.186Z,1003.77
2017-11-25T02:35:50.374Z,1003.78
2017-11-25T02:36:16.531Z,1003.73
2017-11-25T02:36:42.691Z,1003.78
2017-11-25T02:37:08.845Z,1003.81
2017-11-25T02:37:35.007Z,1003.81
2017-11-25T02:38:01.158Z,1003.8
2017-11-25T02:38:27.320Z,1003.82
2017-11-25T02:38:53.474Z,1003.79
2017-11-25T02:39:19.638Z,1003.78
2017-11-25T02:39:45.802Z,1003.81
2017-11-25T02:40:11.956Z,1003.79
2017-11-25T02:40:38.111Z,1003.8
2017-11-25T02:41:04.263Z,1003.81
2017-11-25T02:41:30.426Z,1003.8
2017-11-25T02:41:56.584Z,1003.83
2017-11-25T02:42:22.738Z,1003.8
2017-11-25T02:42:48.888Z,1003.82
2017-11-25T02:43:15.050Z,1003.78
2017-11-25T02:43:41.232Z,1003.78
2017-11-25T02:44:07.421Z,1003.73
2017-11-25T02:44:33.584Z,1003.69
2017-11-25T02:44:59.730Z,1003.74
2017-11-25T02:45:25.953Z,1003.71
2017-11-25T02:45:52.102Z,1003.68
2017-11-25T02:46:18.260Z,1003.67
2017-11-25T02:46:44.416Z,1003.65
2017-11-25T02:47:10.577Z,1003.62
2017-11-25T02:47:36.736Z,1003.62
2017-11-25T02:48:02.895Z,1003.57
2017-11-25T02:48:29.082Z,1003.56
2017-11-25T02:48:55.236Z,1003.6
2017-11-25T02:49:21.408Z,1003.6
2017-11-25T02:49:47.551Z,1003.56
2017-11-25T02:50:13.710Z,1003.54
2017-11-25T02:50:39.872Z,1003.56
2017-11-25T02:51:06.028Z,1003.55
2017-11-25T02:51:32.221Z,1003.54
2017-11-25T02:51:58.366Z,1003.52
2017-11-25T02:52:24.519Z,1003.5
2017-11-25T02:52:50.686Z,1003.48
2017-11-25T02:53:16.839Z,1003.49
2017-11-25T02:53:43.002Z,1003.46
2017-11-25T02:54:09.163Z,1003.47
2017-11-25T02:54:35.349Z,1003.48
2017-11-25T02:55:01.503Z,1003.44
2017-11-25T02:55:27.659Z,1003.45
2017-11-25T02:55:53.814Z,1003.5
2017-11-25T02:56:19.967Z,1003.47
2017-11-25T02:56:46.122Z,1003.47
2017-11-25T02:57:12.284Z,1003.46
2017-11-25T02:57:38.435Z,1003.46
2017-11-25T02:58:04.598Z,1003.45
2017-11-25T02:58:30.769Z,1003.46
2017-11-25T02:58:56.911Z,1003.47
2017-11-25T02:59:23.074Z,1003.47
2017-11-25T02:59:49.248Z,1003.47
2017-11-25T03:00:15.411Z,1003.45
2017-11-25T03:00:41.574Z,1003.51
2017-11-25T03:01:07.732Z,1003.56
2017-11-25T03:01:33.896Z,1003.59
2017-11-25T03:02:00.054Z,1003.62
2017-11-25T03:02:26.210Z,1003.62
2017-11-25T03:02:52.372Z,1003.68
2017-11-25T03:03:18.535Z,1003.7
2017-11-25T03:03:44.692Z,1003.69
2017-11-25T03:04:10.847Z,1003.67
2017-11-25T03:04:36.999Z,1003.65
2017-11-25T03:05:03.165Z,1003.63
2017-11-25T03:05:29.321Z,1003.63
2017-11-25T03:05:55.475Z,1003.62
2017-11-25T03:06:21.630Z,1003.63
2017-11-25T03:06:47.797Z,1003.62
2017-11-25T03:07:13.945Z,1003.6
2017-11-25T03:07:40.112Z,1003.6
2017-11-25T03:08:06.274Z,1003.63
2017-11-25T03:08:32.431Z,1003.63
2017-11-25T03:08:58.587Z,1003.59
2017-11-25T03:09:24.745Z,1003.58
2017-11-25T03:09:50.904Z,1003.59
2017-11-25T03:10:17.058Z,1003.56
2017-11-25T03:10:43.221Z,1003.53
2017-11-25T03:11:09.375Z,1003.48
2017-11-25T03:11:35.568Z,1003.51
2017-11-25T03:12:01.723Z,1003.48
2017-11-25T03:12:27.881Z,1003.47
2017-11-25T03:12:54.067Z,1003.49
2017-11-25T03:13:20.222Z,1003.5
2017-11-25T03:13:46.445Z,1003.54
2017-11-25T03:14:12.597Z,1003.55
2017-11-25T03:14:38.779Z,1003.58
2017-11-25T03:15:04.937Z,1003.6
2017-11-25T03:15:31.099Z,1003.56
2017-11-25T03:15:57.258Z,1003.56
2017-11-25T03:16:23.417Z,1003.56
2017-11-25T03:16:49.575Z,1003.55
2017-11-25T03:17:15.766Z,1003.54
2017-11-25T03:17:41.910Z,1003.55
2017-11-25T03:18:08.072Z,1003.5
2017-11-25T03:18:34.224Z,1003.52
2017-11-25T03:19:00.410Z,1003.53
2017-11-25T03:19:26.572Z,1003.49
2017-11-25T03:19:52.723Z,1003.5
2017-11-25T03:20:18.879Z,1003.52
2017-11-25T03:20:45.042Z,1003.5
2017-11-25T03:21:11.204Z,1003.5
2017-11-25T03:21:37.357Z,1003.55
2017-11-25T03:22:03.519Z,1003.52
2017-11-25T03:22:29.671Z,1003.52
2017-11-25T03:22:55.831Z,1003.51
2017-11-25T03:23:21.983Z,1003.51
2017-11-25T03:23:48.148Z,1003.51
2017-11-25T03:24:14.300Z,1003.51
2017-11-25T03:24:40.463Z,1003.5
2017-11-25T03:25:06.623Z,1003.48
2017-11-25T03:25:32.773Z,1003.49
2017-11-25T03:25:58.939Z,1003.45
2017-11-25T03:26:25.088Z,1003.44
2017-11-25T03:26:51.252Z,1003.38
2017-11-25T03:27:17.414Z,1003.4
2017-11-25T03:27:43.566Z,1003.43
2017-11-25T03:28:09.733Z,1003.38
2017-11-25T03:28:35.885Z,1003.34
2017-11-25T03:29:02.041Z,1003.32
2017-11-25T03:29:28.200Z,1003.32
2017-11-25T03:29:54.356Z,1003.32
2017-11-25T03:30:20.519Z,1003.3
2017-11-25T03:30:46.677Z,1003.32
2017-11-25T03:31:12.832Z,1003.32
2017-11-25T03:31:38.992Z,1003.36
2017-11-25T03:32:05.146Z,1003.36
2017-11-25T03:32:31.309Z,1003.35
2017-11-25T03:32:57.460Z,1003.36
2017-11-25T03:33:23.618Z,1003.32
2017-11-25T03:33:49.773Z,1003.32
2017-11-25T03:34:15.935Z,1003.32
2017-11-25T03:34:42.087Z,1003.31
2017-11-25T03:35:08.276Z,1003.32
2017-11-25T03:35:34.429Z,1003.3
2017-11-25T03:36:00.593Z,1003.3
2017-11-25T03:36:26.745Z,1003.29
2017-11-25T03:36:52.904Z,1003.29
2017-11-25T03:37:19.066Z,1003.26
2017-11-25T03:37:45.226Z,1003.28
2017-11-25T03:38:11.381Z,1003.25
2017-11-25T03:38:37.537Z,1003.25
2017-11-25T03:39:03.698Z,1003.27
2017-11-25T03:39:29.853Z,1003.24
2017-11-25T03:39:56.014Z,1003.26
2017-11-25T03:40:22.173Z,1003.25
2017-11-25T03:40:48.356Z,1003.27
2017-11-25T03:41:14.580Z,1003.26
2017-11-25T03:41:40.768Z,1003.27
2017-11-25T03:42:06.949Z,1003.28
2017-11-25T03:42:33.135Z,1003.29
2017-11-25T03:42:59.289Z,1003.29
2017-11-25T03:43:25.443Z,1003.31
2017-11-25T03:43:51.596Z,1003.34
2017-11-25T03:44:17.759Z,1003.3
2017-11-25T03:44:43.911Z,1003.28
2017-11-25T03:45:10.074Z,1003.27
2017-11-25T03:45:36.223Z,1003.26
2017-11-25T03:46:02.386Z,1003.27
2017-11-25T03:46:28.553Z,1003.22
2017-11-25T03:46:54.710Z,1003.22
2017-11-25T03:47:20.865Z,1003.23
2017-11-25T03:47:47.017Z,1003.19
2017-11-25T03:48:13.209Z,1003.22
2017-11-25T03:48:39.362Z,1003.24
2017-11-25T03:49:05.524Z,1003.21
2017-11-25T03:49:31.677Z,1003.23
2017-11-25T03:49:57.837Z,1003.23
2017-11-25T03:50:23.996Z,1003.24
2017-11-25T03:50:50.149Z,1003.23
2017-11-25T03:51:16.314Z,1003.21
2017-11-25T03:51:42.477Z,1003.2
2017-11-25T03:52:08.629Z,1003.2
2017-11-25T03:52:34.785Z,1003.18
2017-11-25T03:53:00.949Z,1003.17
2017-11-25T03:53:27.129Z,1003.17
2017-11-25T03:53:53.293Z,1003.15
2017-11-25T03:54:19.460Z,1003.18
2017-11-25T03:54:45.601Z,1003.16
2017-11-25T03:55:11.765Z,1003.14
2017-11-25T03:55:37.950Z,1003.19
2017-11-25T03:56:04.107Z,1003.18
2017-11-25T03:56:30.276Z,1003.15
2017-11-25T03:56:56.428Z,1003.15
2017-11-25T03:57:22.581Z,1003.22
2017-11-25T03:57:48.744Z,1003.2
2017-11-25T03:58:14.899Z,1003.21
2017-11-25T03:58:41.055Z,1003.19
2017-11-25T03:59:07.247Z,1003.25
2017-11-25T03:59:33.396Z,1003.2
2017-11-25T03:59:59.558Z,1003.22
2017-11-25T04:00:25.723Z,1003.24
2017-11-25T04:00:51.938Z,1003.21
2017-11-25T04:01:18.090Z,1003.2
2017-11-25T04:01:44.248Z,1003.21
2017-11-25T04:02:10.412Z,1003.19
2017-11-25T04:02:36.568Z,1003.15
2017-11-25T04:03:02.731Z,1003.17
2017-11-25T04:03:28.885Z,1003.11
2017-11-25T04:03:55.044Z,1003.11
2017-11-25T04:04:21.207Z,1003.05
2017-11-25T04:04:47.358Z,1003.04
2017-11-25T04:05:13.528Z,1003.02
2017-11-25T04:05:39.719Z,1002.98
2017-11-25T04:06:05.870Z,1003
2017-11-25T04:06:32.024Z,1003
2017-11-25T04:06:58.175Z,1003.02
2017-11-25T04:07:24.360Z,1003
2017-11-25T04:07:50.517Z,1002.98
2017-11-25T04:08:16.689Z,1002.99
2017-11-25T04:08:42.830Z,1002.98
2017-11-25T04:09:08.985Z,1002.99
2017-11-25T04:09:35.145Z,1003
2017-11-25T04:10:01.304Z,1002.96
2017-11-25T04:10:27.460Z,1003
2017-11-25T04:10:53.644Z,1002.94
2017-11-25T04:11:19.803Z,1002.96
2017-11-25T04:11:45.964Z,1002.95
2017-11-25T04:12:12.127Z,1002.98
2017-11-25T04:12:38.285Z,1002.96
2017-11-25T04:13:04.447Z,1002.97
2017-11-25T04:13:30.598Z,1003.02
2017-11-25T04:13:56.759Z,1003.01
2017-11-25T04:14:22.910Z,1002.99
2017-11-25T04:14:49.072Z,1002.97
2017-11-25T04:15:15.296Z,1002.97
2017-11-25T04:15:41.455Z,1002.97
2017-11-25T04:16:07.617Z,1002.97
2017-11-25T04:16:33.772Z,1002.99
2017-11-25T04:16:59.928Z,1002.98
2017-11-25T04:17:26.089Z,1002.93
2017-11-25T04:17:52.250Z,1002.95
2017-11-25T04:18:18.399Z,1002.93
2017-11-25T04:18:44.554Z,1002.87
2017-11-25T04:19:10.719Z,1002.85
2017-11-25T04:19:36.884Z,1002.8
2017-11-25T04:20:03.040Z,1002.83
2017-11-25T04:20:29.194Z,1002.78
2017-11-25T04:20:55.348Z,1002.79
2017-11-25T04:21:21.509Z,1002.78
2017-11-25T04:21:47.663Z,1002.74
2017-11-25T04:22:13.819Z,1002.78
2017-11-25T04:22:39.982Z,1002.72
2017-11-25T04:23:06.142Z,1002.72
2017-11-25T04:23:32.327Z,1002.71
2017-11-25T04:23:58.483Z,1002.71
2017-11-25T04:24:24.647Z,1002.69
2017-11-25T04:24:50.827Z,1002.71
2017-11-25T04:25:16.989Z,1002.67
2017-11-25T04:25:43.156Z,1002.68
2017-11-25T04:26:09.307Z,1002.69
2017-11-25T04:26:35.493Z,1002.7
2017-11-25T04:27:01.648Z,1002.69
2017-11-25T04:27:27.810Z,1002.72
2017-11-25T04:27:53.977Z,1002.71
2017-11-25T04:28:20.120Z,1002.73
2017-11-25T04:28:46.278Z,1002.7
2017-11-25T04:29:12.432Z,1002.74
2017-11-25T04:29:38.587Z,1002.69
2017-11-25T04:30:04.748Z,1002.73
2017-11-25T04:30:30.912Z,1002.76
2017-11-25T04:30:57.060Z,1002.73
2017-11-25T04:31:23.217Z,1002.73
2017-11-25T04:31:49.378Z,1002.74
2017-11-25T04:32:15.534Z,1002.75
2017-11-25T04:32:41.695Z,1002.75
2017-11-25T04:33:07.846Z,1002.75
2017-11-25T04:33:34.015Z,1002.73
2017-11-25T04:34:00.161Z,1002.73
2017-11-25T04:34:26.320Z,1002.73
2017-11-25T04:34:52.479Z,1002.74
2017-11-25T04:35:18.671Z,1002.74
2017-11-25T04:35:44.831Z,1002.74
2017-11-25T04:36:10.983Z,1002.72
2017-11-25T04:36:37.146Z,1002.72
2017-11-25T04:37:03.315Z,1002.72
2017-11-25T04:37:29.456Z,1002.7
2017-11-25T04:37:55.614Z,1002.68
2017-11-25T04:38:21.803Z,1002.7
2017-11-25T04:38:47.962Z,1002.72
2017-11-25T04:39:14.119Z,1002.71
2017-11-25T04:39:40.281Z,1002.69
2017-11-25T04:40:06.437Z,1002.68
2017-11-25T04:40:32.594Z,1002.69
2017-11-25T04:40:58.748Z,1002.65
2017-11-25T04:41:24.907Z,1002.67
2017-11-25T04:41:51.096Z,1002.59
2017-11-25T04:42:17.251Z,1002.64
2017-11-25T04:42:43.411Z,1002.6
2017-11-25T04:43:09.567Z,1002.59
2017-11-25T04:43:35.732Z,1002.56
2017-11-25T04:44:01.884Z,1002.59
2017-11-25T04:44:28.044Z,1002.54
2017-11-25T04:44:54.206Z,1002.53
2017-11-25T04:45:20.358Z,1002.52
2017-11-25T04:45:46.526Z,1002.51
2017-11-25T04:46:12.675Z,1002.51
2017-11-25T04:46:38.828Z,1002.52
2017-11-25T04:47:04.992Z,1002.54
2017-11-25T04:47:31.152Z,1002.56
2017-11-25T04:47:57.307Z,1002.54
2017-11-25T04:48:23.468Z,1002.6
2017-11-25T04:48:49.629Z,1002.57
2017-11-25T04:49:15.788Z,1002.61
2017-11-25T04:49:41.950Z,1002.59
2017-11-25T04:50:08.101Z,1002.6
2017-11-25T04:50:34.263Z,1002.6
2017-11-25T04:51:00.416Z,1002.61
2017-11-25T04:51:26.572Z,1002.6
2017-11-25T04:51:52.726Z,1002.58
2017-11-25T04:52:18.888Z,1002.57
2017-11-25T04:52:45.043Z,1002.56
2017-11-25T04:53:11.209Z,1002.59
2017-11-25T04:53:37.365Z,1002.57
2017-11-25T04:54:03.520Z,1002.54
2017-11-25T04:54:29.676Z,1002.57
2017-11-25T04:54:55.837Z,1002.54
2017-11-25T04:55:21.988Z,1002.5
2017-11-25T04:55:48.154Z,1002.56
2017-11-25T04:56:14.319Z,1002.5
2017-11-25T04:56:40.466Z,1002.53
2017-11-25T04:57:06.623Z,1002.52
2017-11-25T04:57:32.781Z,1002.5
2017-11-25T04:57:58.934Z,1002.48
2017-11-25T04:58:25.096Z,1002.54
2017-11-25T04:58:51.256Z,1002.49
2017-11-25T04:59:17.436Z,1002.5
2017-11-25T04:59:43.599Z,1002.49
2017-11-25T05:00:09.751Z,1002.5
2017-11-25T05:00:35.913Z,1002.45
2017-11-25T05:01:02.095Z,1002.5
2017-11-25T05:01:28.348Z,1002.47
2017-11-25T05:01:54.481Z,1002.49
2017-11-25T05:02:20.659Z,1002.49
2017-11-25T05:02:46.821Z,1002.5
2017-11-25T05:03:12.984Z,1002.51
2017-11-25T05:03:39.136Z,1002.5
2017-11-25T05:04:05.291Z,1002.52
2017-11-25T05:04:31.456Z,1002.52
2017-11-25T05:04:57.640Z,1002.5
2017-11-25T05:05:23.793Z,1002.53
2017-11-25T05:05:49.985Z,1002.56
2017-11-25T05:06:16.137Z,1002.61
2017-11-25T05:06:42.301Z,1002.55
2017-11-25T05:07:08.485Z,1002.57
2017-11-25T05:07:34.645Z,1002.54
2017-11-25T05:08:00.803Z,1002.59
2017-11-25T05:08:26.962Z,1002.54
2017-11-25T05:08:53.113Z,1002.53
2017-11-25T05:09:19.268Z,1002.53
2017-11-25T05:09:45.427Z,1002.55
2017-11-25T05:10:11.589Z,1002.51
2017-11-25T05:10:37.748Z,1002.56
2017-11-25T05:11:03.902Z,1002.57
2017-11-25T05:11:30.060Z,1002.56
2017-11-25T05:11:56.216Z,1002.58
2017-11-25T05:12:22.367Z,1002.55
2017-11-25T05:12:48.529Z,1002.54
2017-11-25T05:13:14.690Z,1002.57
2017-11-25T05:13:40.851Z,1002.56
2017-11-25T05:14:07.001Z,1002.49
2017-11-25T05:14:33.168Z,1002.52
2017-11-25T05:14:59.321Z,1002.5
2017-11-25T05:15:25.484Z,1002.49
2017-11-25T05:15:51.639Z,1002.47
2017-11-25T05:16:17.808Z,1002.43
2017-11-25T05:16:43.980Z,1002.41
2017-11-25T05:17:10.132Z,1002.4
2017-11-25T05:17:36.316Z,1002.36